This is the latest recevied weather packets stored in our database for station/object F1PPH-3. If no packets are shown the sender has not sent any weather packets the latest 10 day(s).
| Time | Temp. | Humidity | Pressure | Rain* | Wind** | Luminosity | Snow |
|---|---|---|---|---|---|---|---|
| 1777528306 | 25.56° C | 35% | 1009.3 hPa | - | - | - | - |
| 1777522546 | 25.56° C | 35% | 1008.5 hPa | - | - | - | - |
| 1777519665 | 25.56° C | 34% | 1008.4 hPa | - | - | - | - |
| 1777511025 | 26.11° C | 34% | 1008.2 hPa | - | - | - | - |
| 1777505265 | 26.67° C | 34% | 1008 hPa | - | - | - | - |
| 1777502385 | 27.22° C | 34% | 1007.9 hPa | - | - | - | - |
| 1777499503 | 27.22° C | 34% | 1007.8 hPa | - | - | - | - |
| 1777495903 | 27.78° C | 34% | 1007.4 hPa | - | - | - | - |
| 1777493023 | 28.33° C | 34% | 1006.9 hPa | - | - | - | - |
| 1777486543 | 28.89° C | 33% | 1005.9 hPa | - | - | - | - |
| 1777480064 | 28.89° C | 33% | 1005.5 hPa | - | - | - | - |
| 1777477181 | 28.33° C | 33% | 1005.6 hPa | - | - | - | - |
| 1777474301 | 28.33° C | 33% | 1005.7 hPa | - | - | - | - |
| 1777467820 | 27.22° C | 34% | 1005.9 hPa | - | - | - | - |
| 1777462060 | 26.11° C | 34% | 1006.4 hPa | - | - | - | - |
| 1777459180 | 25.56° C | 34% | 1006.8 hPa | - | - | - | - |
| 1777456299 | 25° C | 34% | 1007.2 hPa | - | - | - | - |
| 1777453420 | 24.44° C | 34% | 1007.4 hPa | - | - | - | - |
| 1777450539 | 24.44° C | 34% | 1007.5 hPa | - | - | - | - |
| 1777447659 | 23.89° C | 34% | 1007.4 hPa | - | - | - | - |
| 1777441898 | 24.44° C | 34% | 1006.8 hPa | - | - | - | - |
| 1777439017 | 24.44° C | 33% | 1006.7 hPa | - | - | - | - |
| 1777430163 | 24.44° C | 33% | 1006.8 hPa | - | - | - | - |
| 1777426564 | 25° C | 33% | 1006.8 hPa | - | - | - | - |
| 1777423683 | 25.56° C | 33% | 1007.1 hPa | - | - | - | - |
* Rain since midnight (hover to see other rain measurements)
** Current wind speed in m/s (hover to see current wind gust speed)